Time;durP1;ratioP1;P1;durP2;ratioP2;P2;SDS_P1;SDS_P2;PMS_P1;PMS_P2;Temp;Humidity;BMP_temperature;BMP_pressure;BME280_temperature;BME280_humidity;BME280_pressure;Samples;Min_cycle;Max_cycle;Signal;HPM_P1;HPM_P2
2024/04/17 00:01:05;;;;;;;7.43;1.30;;;12.20;79.80;;;;;;5463183;26;20018;-58
2024/04/17 00:03:30;;;;;;;4.18;1.30;;;12.20;79.80;;;;;;5436278;26;20008;-58
2024/04/17 00:05:56;;;;;;;9.63;1.40;;;12.20;79.80;;;;;;5427258;26;20108;-58
2024/04/17 00:08:21;;;;;;;7.25;1.38;;;12.20;79.90;;;;;;5429055;26;20003;-58
2024/04/17 00:10:47;;;;;;;3.95;1.30;;;12.10;79.90;;;;;;5429747;26;20008;-58
2024/04/17 00:13:12;;;;;;;10.75;1.42;;;12.10;79.90;;;;;;5465136;26;19999;-58
2024/04/17 00:15:39;;;;;;;6.13;1.88;;;12.10;79.90;;;;;;5463167;26;19999;-58
2024/04/17 00:18:05;;;;;;;7.55;1.27;;;12.10;79.90;;;;;;5463417;26;20052;-58
2024/04/17 00:20:30;;;;;;;7.60;1.23;;;12.10;80.00;;;;;;5420193;26;20371;-58
2024/04/17 00:22:56;;;;;;;6.07;1.55;;;12.10;80.10;;;;;;5439859;26;20003;-58
2024/04/17 00:25:22;;;;;;;5.80;1.33;;;12.10;80.20;;;;;;5464321;26;20002;-58
2024/04/17 00:27:47;;;;;;;5.13;0.88;;;12.00;80.20;;;;;;5464708;26;20134;-58
2024/04/17 00:30:13;;;;;;;8.38;1.42;;;12.00;80.40;;;;;;5456195;26;20008;-58
2024/04/17 00:32:38;;;;;;;6.07;1.10;;;12.00;80.40;;;;;;5426653;26;20003;-57
2024/04/17 00:35:04;;;;;;;10.85;1.05;;;12.00;80.50;;;;;;5428116;26;19996;-58
2024/04/17 00:37:30;;;;;;;6.50;1.35;;;12.00;80.40;;;;;;5428778;26;20000;-57
2024/04/17 00:39:55;;;;;;;5.18;1.08;;;11.90;80.50;;;;;;5428613;26;19996;-58
2024/04/17 00:42:21;;;;;;;4.20;0.82;;;11.90;80.60;;;;;;5428635;26;20010;-58
2024/04/17 00:44:46;;;;;;;5.20;0.73;;;11.90;80.70;;;;;;5428765;26;20002;-58
2024/04/17 00:47:12;;;;;;;4.95;1.35;;;11.90;80.80;;;;;;5430779;26;20101;-58
2024/04/17 00:49:37;;;;;;;3.63;1.00;;;11.90;81.00;;;;;;5492982;26;20068;-58
2024/04/17 00:52:03;;;;;;;4.88;0.90;;;11.80;81.00;;;;;;5462447;26;20014;-58
2024/04/17 00:54:29;;;;;;;4.38;0.90;;;11.90;80.90;;;;;;5462542;26;19995;-58
2024/04/17 00:56:55;;;;;;;5.40;0.82;;;11.80;80.90;;;;;;5486227;26;19995;-58
2024/04/17 00:59:21;;;;;;;3.83;0.90;;;11.80;80.90;;;;;;5426573;26;19992;-58
2024/04/17 01:01:46;;;;;;;4.15;0.70;;;11.80;81.10;;;;;;5428402;26;20045;-58
2024/04/17 01:04:12;;;;;;;3.40;0.93;;;11.80;81.20;;;;;;5428457;26;19999;-58
2024/04/17 01:06:38;;;;;;;1.60;0.65;;;11.70;81.20;;;;;;5450818;26;20013;-58
2024/04/17 01:09:04;;;;;;;1.42;0.60;;;11.80;81.30;;;;;;5492969;26;20003;-58
2024/04/17 01:11:42;;;;;;;2.55;0.60;;;11.70;81.40;;;;;;5462311;26;20447;-59
2024/04/17 01:14:08;;;;;;;1.98;0.70;;;11.60;81.50;;;;;;5492142;26;20013;-58
2024/04/17 01:16:35;;;;;;;4.07;1.27;;;11.70;81.70;;;;;;5486254;26;19996;-58
2024/04/17 01:19:01;;;;;;;4.30;0.60;;;11.70;81.70;;;;;;5426305;26;20027;-58
2024/04/17 01:21:26;;;;;;;1.48;0.45;;;11.60;82.40;;;;;;5426267;26;19999;-58
2024/04/17 01:23:53;;;;;;;4.15;0.82;;;11.60;81.80;;;;;;5426828;26;20007;-58
2024/04/17 01:26:19;;;;;;;1.35;0.60;;;11.60;81.80;;;;;;5428182;26;19998;-58
2024/04/17 01:28:45;;;;;;;4.20;0.73;;;11.60;82.40;;;;;;5486199;26;20007;-58
2024/04/17 01:31:10;;;;;;;2.65;0.70;;;11.60;81.80;;;;;;5486586;26;20061;-58
2024/04/17 01:33:37;;;;;;;4.15;0.95;;;11.60;81.80;;;;;;5505079;26;20271;-58
2024/04/17 01:36:04;;;;;;;3.90;0.65;;;11.60;81.90;;;;;;5446292;26;20450;-58
2024/04/17 01:38:29;;;;;;;2.20;0.40;;;11.60;82.00;;;;;;5427906;26;19999;-58
2024/04/17 01:40:55;;;;;;;4.28;0.73;;;11.60;82.00;;;;;;5427991;26;19991;-57
2024/04/17 01:43:20;;;;;;;1.63;0.57;;;11.50;82.00;;;;;;5486302;26;19996;-58
2024/04/17 01:45:47;;;;;;;1.50;0.80;;;11.50;82.10;;;;;;5426386;26;20067;-57
2024/04/17 01:48:13;;;;;;;2.42;0.60;;;11.60;82.10;;;;;;5455807;26;19992;-58
2024/04/17 01:50:39;;;;;;;2.47;0.50;;;11.50;82.20;;;;;;5456774;26;19995;-57
2024/04/17 01:53:04;;;;;;;3.15;0.80;;;11.50;82.30;;;;;;5486536;26;20065;-58
2024/04/17 01:55:30;;;;;;;2.10;0.47;;;11.50;82.40;;;;;;5427824;26;19992;-57
2024/04/17 01:57:55;;;;;;;1.55;0.60;;;11.50;82.40;;;;;;5428037;26;20428;-57
2024/04/17 02:00:21;;;;;;;1.40;0.73;;;11.40;82.40;;;;;;5427733;26;20002;-57
2024/04/17 02:02:47;;;;;;;1.38;0.35;;;11.40;82.60;;;;;;5425827;26;19991;-57
2024/04/17 02:05:12;;;;;;;6.45;0.60;;;11.40;82.70;;;;;;5455711;26;19988;-58
2024/04/17 02:07:38;;;;;;;1.17;0.57;;;11.40;82.70;;;;;;5427645;26;19995;-58
2024/04/17 02:10:04;;;;;;;1.42;0.60;;;11.40;82.90;;;;;;5427689;26;20037;-58
2024/04/17 02:12:29;;;;;;;1.02;0.30;;;11.30;82.90;;;;;;5485681;26;20007;-58
2024/04/17 02:14:55;;;;;;;5.85;0.57;;;11.30;83.00;;;;;;5427541;26;20004;-58
2024/04/17 02:17:20;;;;;;;1.83;0.40;;;11.30;83.10;;;;;;5485893;26;19995;-58
2024/04/17 02:19:46;;;;;;;2.88;0.60;;;11.30;83.20;;;;;;5425376;26;20003;-58
2024/04/17 02:22:11;;;;;;;2.20;0.68;;;11.30;83.30;;;;;;5486045;26;20004;-57
2024/04/17 02:24:37;;;;;;;1.45;0.30;;;11.30;83.30;;;;;;5455271;26;20002;-58
2024/04/17 02:27:03;;;;;;;1.92;0.50;;;11.30;83.20;;;;;;5427389;26;20060;-58
2024/04/17 02:29:29;;;;;;;0.80;0.30;;;11.30;83.20;;;;;;5427278;26;20015;-58
2024/04/17 02:31:54;;;;;;;1.45;0.40;;;11.20;83.20;;;;;;5425234;26;19992;-58
2024/04/17 02:34:22;;;;;;;2.70;0.40;;;11.20;83.90;;;;;;5427075;26;20011;-58
2024/04/17 02:36:47;;;;;;;2.35;0.52;;;11.20;83.30;;;;;;5485511;26;19987;-58
2024/04/17 02:39:13;;;;;;;0.77;0.28;;;11.20;83.30;;;;;;5426936;26;19992;-58
2024/04/17 02:41:38;;;;;;;1.63;0.60;;;11.20;83.40;;;;;;5485507;26;20414;-58
2024/04/17 02:44:04;;;;;;;1.77;0.22;;;11.20;83.50;;;;;;5485306;26;19995;-58
2024/04/17 02:46:30;;;;;;;1.45;0.38;;;11.10;83.50;;;;;;5485460;26;20003;-58
2024/04/17 02:48:56;;;;;;;2.67;0.45;;;11.10;83.50;;;;;;5454723;26;20472;-58
2024/04/17 02:51:21;;;;;;;3.05;0.45;;;11.10;83.60;;;;;;5485206;26;20027;-58
2024/04/17 02:53:47;;;;;;;0.40;0.38;;;11.10;83.60;;;;;;5485323;26;19992;-58
2024/04/17 02:56:12;;;;;;;1.15;0.50;;;11.10;83.60;;;;;;5485776;26;20275;-58
2024/04/17 02:58:38;;;;;;;1.05;0.50;;;11.10;83.70;;;;;;5434326;26;20003;-58
2024/04/17 03:01:13;;;;;;;0.45;0.38;;;11.00;83.70;;;;;;5462487;26;20010;-58
2024/04/17 03:03:39;;;;;;;1.20;0.43;;;11.00;83.80;;;;;;5462154;26;19999;-58
2024/04/17 03:06:05;;;;;;;1.90;0.63;;;11.00;83.80;;;;;;5492898;26;20051;-58
2024/04/17 03:08:31;;;;;;;1.50;0.40;;;11.00;83.70;;;;;;5462167;26;20010;-58
2024/04/17 03:11:00;;;;;;;0.40;0.30;;;11.00;83.70;;;;;;5493109;26;19995;-57
2024/04/17 03:13:25;;;;;;;1.00;0.35;;;11.00;84.40;;;;;;5461951;26;20000;-58
2024/04/17 03:15:51;;;;;;;0.30;0.20;;;11.00;83.70;;;;;;5462144;26;20006;-58
2024/04/17 03:18:16;;;;;;;0.32;0.30;;;11.00;83.80;;;;;;5434056;26;20076;-58
2024/04/17 03:20:42;;;;;;;0.73;0.30;;;10.90;83.80;;;;;;5492731;26;20074;-58
2024/04/17 03:23:08;;;;;;;0.70;0.40;;;10.90;83.70;;;;;;5492845;26;20464;-58
2024/04/17 03:25:33;;;;;;;1.05;0.47;;;10.90;83.70;;;;;;5433873;26;20432;-57
2024/04/17 03:27:59;;;;;;;2.05;0.40;;;10.90;83.70;;;;;;5433888;26;19992;-57
2024/04/17 03:30:25;;;;;;;0.63;0.38;;;10.90;83.70;;;;;;5461776;26;20005;-58
2024/04/17 03:32:51;;;;;;;1.13;0.52;;;10.90;83.60;;;;;;5492323;26;19992;-58
2024/04/17 03:35:16;;;;;;;0.90;0.50;;;10.90;83.60;;;;;;5433634;26;20003;-58
2024/04/17 03:37:42;;;;;;;0.82;0.40;;;10.90;83.60;;;;;;5491978;26;20360;-58
2024/04/17 03:40:08;;;;;;;0.47;0.30;;;10.90;83.70;;;;;;5492003;26;20400;-58
2024/04/17 03:42:34;;;;;;;1.83;0.40;;;10.80;83.70;;;;;;5433661;26;20007;-57
2024/04/17 03:44:59;;;;;;;0.22;0.20;;;10.90;83.70;;;;;;5433476;26;20014;-58
2024/04/17 03:47:25;;;;;;;0.68;0.30;;;10.90;83.70;;;;;;5492232;26;20006;-58
2024/04/17 03:49:50;;;;;;;1.13;0.20;;;10.80;83.70;;;;;;5492004;26;20011;-58
2024/04/17 03:52:16;;;;;;;0.30;0.25;;;10.80;83.70;;;;;;5461449;26;20006;-58
2024/04/17 03:54:42;;;;;;;0.70;0.30;;;10.80;83.70;;;;;;5433404;26;20032;-58
2024/04/17 03:57:07;;;;;;;0.50;0.40;;;10.80;83.70;;;;;;5492097;26;19996;-58
2024/04/17 03:59:33;;;;;;;0.93;0.30;;;10.80;83.90;;;;;;5433311;26;20003;-58
2024/04/17 04:01:59;;;;;;;0.43;0.15;;;10.80;83.90;;;;;;5492065;26;20010;-58
2024/04/17 04:04:24;;;;;;;0.50;0.22;;;10.80;83.80;;;;;;5433220;26;20121;-58
2024/04/17 04:06:50;;;;;;;0.63;0.40;;;10.80;84.00;;;;;;5491645;26;20128;-58
2024/04/17 04:09:16;;;;;;;0.98;0.38;;;10.80;84.00;;;;;;5487522;26;20072;-58
2024/04/17 04:11:41;;;;;;;2.53;0.45;;;10.80;84.30;;;;;;5427344;26;20086;-58
2024/04/17 04:14:07;;;;;;;0.68;0.40;;;10.70;84.30;;;;;;5429115;26;20042;-58
2024/04/17 04:16:33;;;;;;;1.05;0.20;;;10.70;84.40;;;;;;5429212;26;20002;-57
2024/04/17 04:18:59;;;;;;;0.47;0.22;;;10.70;84.50;;;;;;5456981;26;20045;-58
2024/04/17 04:21:25;;;;;;;0.20;0.20;;;10.70;84.50;;;;;;5487466;26;20023;-58
2024/04/17 04:23:50;;;;;;;0.70;0.40;;;10.60;84.50;;;;;;5428949;26;20292;-58
2024/04/17 04:26:16;;;;;;;0.47;0.20;;;10.70;84.50;;;;;;5429143;26;19996;-58
2024/04/17 04:28:42;;;;;;;1.20;0.40;;;10.70;84.50;;;;;;5429030;26;20474;-58
2024/04/17 04:31:07;;;;;;;0.50;0.30;;;10.70;84.50;;;;;;5487718;26;20011;-58
2024/04/17 04:33:33;;;;;;;0.52;0.30;;;10.60;84.50;;;;;;5500818;26;20352;-58
2024/04/17 04:35:58;;;;;;;0.80;0.40;;;10.60;84.50;;;;;;5463627;26;19991;-58
2024/04/17 04:38:25;;;;;;;2.42;0.75;;;10.70;84.60;;;;;;5464628;26;20003;-58
2024/04/17 04:40:50;;;;;;;0.30;0.20;;;10.60;84.60;;;;;;5462387;26;20010;-58
2024/04/17 04:43:16;;;;;;;0.98;0.38;;;10.60;84.80;;;;;;5464381;26;19998;-58
2024/04/17 04:45:41;;;;;;;1.35;0.70;;;10.60;85.00;;;;;;5464686;26;20014;-59
2024/04/17 04:48:07;;;;;;;4.38;0.40;;;10.60;85.80;;;;;;5464674;26;20009;-58
2024/04/17 04:50:33;;;;;;;1.05;0.40;;;10.60;85.20;;;;;;5464548;26;20290;-58
2024/04/17 04:52:59;;;;;;;0.77;0.55;;;10.60;85.10;;;;;;5493260;26;20002;-59
2024/04/17 04:55:24;;;;;;;0.75;0.45;;;10.60;85.30;;;;;;5464497;26;20086;-58
2024/04/17 04:57:50;;;;;;;3.42;0.73;;;10.60;85.40;;;;;;5462642;26;20003;-58
2024/04/17 05:00:16;;;;;;;5.75;0.70;;;10.60;85.40;;;;;;5464477;26;19999;-58
2024/04/17 05:02:41;;;;;;;2.28;0.68;;;10.60;85.50;;;;;;5462883;26;19995;-57
2024/04/17 05:05:07;;;;;;;1.48;0.50;;;10.60;85.60;;;;;;5432375;26;20014;-58
2024/04/17 05:07:32;;;;;;;5.95;1.42;;;10.60;85.60;;;;;;5492770;26;20013;-58
2024/04/17 05:09:58;;;;;;;5.15;1.10;;;10.60;85.60;;;;;;5460008;26;20052;-58
2024/04/17 05:12:24;;;;;;;12.73;1.50;;;10.60;85.70;;;;;;5462062;26;19994;-58
2024/04/17 05:14:49;;;;;;;7.53;1.38;;;10.60;85.70;;;;;;5462188;26;20006;-58
2024/04/17 05:17:15;;;;;;;12.27;2.30;;;10.60;85.60;;;;;;5461551;26;19998;-58
2024/04/17 05:19:40;;;;;;;8.80;2.38;;;10.60;85.60;;;;;;5454989;26;20045;-58
2024/04/17 05:22:06;;;;;;;24.73;4.00;;;10.60;85.70;;;;;;5455500;26;20007;-57
2024/04/17 05:24:32;;;;;;;13.52;3.15;;;10.60;85.80;;;;;;5425946;26;20007;-58
2024/04/17 05:26:57;;;;;;;27.85;3.85;;;10.60;85.80;;;;;;5428144;26;19998;-58
2024/04/17 05:29:23;;;;;;;22.17;4.35;;;10.60;85.80;;;;;;5425668;26;19999;-58
2024/04/17 05:31:49;;;;;;;24.80;4.53;;;10.60;85.80;;;;;;5428139;26;19996;-58
2024/04/17 05:34:14;;;;;;;21.15;4.25;;;10.60;85.80;;;;;;5427999;26;20000;-58
2024/04/17 05:36:40;;;;;;;38.45;6.18;;;10.60;85.80;;;;;;5426248;26;19991;-58
2024/04/17 05:39:06;;;;;;;42.97;7.07;;;10.60;85.70;;;;;;5426068;26;20003;-58
2024/04/17 05:41:31;;;;;;;41.60;6.78;;;10.60;85.90;;;;;;5426373;26;20059;-58
2024/04/17 05:43:57;;;;;;;48.05;6.00;;;10.60;86.30;;;;;;5427843;26;20006;-58
2024/04/17 05:46:25;;;;;;;39.80;6.13;;;10.60;86.90;;;;;;5425810;26;20418;-58
2024/04/17 05:48:51;;;;;;;62.45;9.45;;;10.60;86.80;;;;;;5425398;26;20027;-59
2024/04/17 05:51:17;;;;;;;49.10;7.15;;;10.60;86.60;;;;;;5426161;26;20022;-58
2024/04/17 05:53:42;;;;;;;37.80;6.78;;;10.60;86.50;;;;;;5426057;26;20026;-58
2024/04/17 05:56:08;;;;;;;50.00;7.50;;;10.60;86.50;;;;;;5465246;26;20013;-58
2024/04/17 05:58:33;;;;;;;38.28;6.13;;;10.60;86.50;;;;;;5448536;26;20017;-58
2024/04/17 06:00:59;;;;;;;29.90;5.20;;;10.90;87.00;;;;;;5460416;26;20076;-58
2024/04/17 06:03:25;;;;;;;24.17;5.05;;;10.50;86.80;;;;;;5456690;26;20003;-58
2024/04/17 06:05:50;;;;;;;33.95;5.80;;;10.50;87.00;;;;;;5437655;26;20007;-58
2024/04/17 06:08:16;;;;;;;36.22;6.75;;;10.50;87.20;;;;;;5462699;26;20013;-58
2024/04/17 06:10:42;;;;;;;47.28;7.90;;;10.50;87.40;;;;;;5461319;26;20010;-59
2024/04/17 06:13:07;;;;;;;35.35;5.43;;;10.50;87.40;;;;;;5461656;26;20025;-58
2024/04/17 06:15:35;;;;;;;32.10;5.28;;;10.50;87.50;;;;;;5463392;26;20074;-58
2024/04/17 06:18:05;;;;;;;27.02;4.75;;;10.40;87.60;;;;;;5454111;26;20095;-57
2024/04/17 06:20:30;;;;;;;23.92;4.28;;;10.40;87.50;;;;;;5427768;26;20267;-58
2024/04/17 06:22:56;;;;;;;18.30;3.40;;;10.40;87.40;;;;;;5461576;26;19997;-58
2024/04/17 06:25:22;;;;;;;15.60;4.32;;;10.40;87.30;;;;;;5463023;26;20462;-58
2024/04/17 06:27:47;;;;;;;17.70;3.75;;;10.40;87.20;;;;;;5429371;26;20004;-58
2024/04/17 06:30:13;;;;;;;20.05;4.45;;;10.40;87.20;;;;;;5518785;25;20010;-58
2024/04/17 06:32:39;;;;;;;18.48;3.95;;;10.40;87.30;;;;;;5457727;26;20006;-58
2024/04/17 06:35:05;;;;;;;11.95;3.22;;;10.50;87.30;;;;;;5460794;26;20056;-58
2024/04/17 06:37:30;;;;;;;31.83;3.45;;;10.50;87.40;;;;;;5425127;26;20140;-58
2024/04/17 06:39:56;;;;;;;27.30;4.13;;;10.50;87.50;;;;;;5425151;26;20157;-58
2024/04/17 06:42:21;;;;;;;11.43;3.50;;;10.50;87.40;;;;;;5445355;26;20092;-58
2024/04/17 06:44:47;;;;;;;12.52;3.67;;;10.50;87.50;;;;;;5459805;26;20076;-58
2024/04/17 06:47:13;;;;;;;11.32;3.20;;;10.50;87.50;;;;;;5462985;26;20514;-58
2024/04/17 06:49:39;;;;;;;20.88;3.28;;;10.50;87.50;;;;;;5463751;26;19999;-58
2024/04/17 06:52:05;;;;;;;17.95;2.67;;;10.50;87.50;;;;;;5463964;26;19998;-58
2024/04/17 06:54:30;;;;;;;20.10;3.05;;;10.50;87.40;;;;;;5482732;26;19990;-58
2024/04/17 06:56:56;;;;;;;24.35;3.83;;;10.50;87.40;;;;;;5460412;26;20032;-58
2024/04/17 06:59:22;;;;;;;25.83;3.97;;;10.50;87.40;;;;;;5461661;26;19999;-58
2024/04/17 07:01:47;;;;;;;39.35;5.40;;;10.50;87.30;;;;;;5451744;26;20004;-58
2024/04/17 07:04:13;;;;;;;25.58;3.05;;;10.50;87.50;;;;;;5466065;26;20027;-57
2024/04/17 07:06:40;;;;;;;17.42;3.25;;;10.50;87.60;;;;;;5459897;26;19995;-58
2024/04/17 07:09:06;;;;;;;17.33;2.65;;;10.50;87.70;;;;;;5470460;26;20007;-58
2024/04/17 07:11:32;;;;;;;20.60;2.88;;;10.50;87.90;;;;;;5428946;26;20348;-58
2024/04/17 07:13:59;;;;;;;35.95;4.07;;;10.50;88.10;;;;;;5468004;26;20019;-58
2024/04/17 07:16:24;;;;;;;23.27;3.60;;;10.40;88.50;;;;;;5460806;26;20074;-58
2024/04/17 07:18:50;;;;;;;21.00;3.10;;;10.40;88.60;;;;;;5460042;26;20167;-58
2024/04/17 07:21:16;;;;;;;17.52;2.83;;;10.50;88.70;;;;;;5449860;26;20044;-58
2024/04/17 07:23:43;;;;;;;23.08;4.15;;;10.40;88.80;;;;;;5448421;26;19995;-57
2024/04/17 07:26:12;;;;;;;17.20;2.83;;;10.40;88.90;;;;;;5451224;26;20462;-58
2024/04/17 07:28:38;;;;;;;13.85;2.72;;;10.40;88.80;;;;;;5463330;26;20006;-58
2024/04/17 07:31:04;;;;;;;18.20;3.30;;;10.40;88.80;;;;;;5475772;26;20282;-58
2024/04/17 07:33:29;;;;;;;18.42;2.72;;;10.40;88.80;;;;;;5478562;26;20588;-58
2024/04/17 07:35:58;;;;;;;17.08;2.63;;;10.40;89.30;;;;;;5426781;26;20022;-58
2024/04/17 07:38:24;;;;;;;28.17;2.95;;;10.40;89.20;;;;;;5468494;26;20094;-58
2024/04/17 07:40:57;;;;;;;19.17;2.72;;;10.40;89.10;;;;;;5475718;26;20121;-58
2024/04/17 07:43:22;;;;;;;45.00;4.80;;;10.40;89.30;;;;;;5454981;26;20003;-58
2024/04/17 07:45:51;;;;;;;52.80;5.43;;;10.40;89.20;;;;;;5455753;26;20017;-58
2024/04/17 07:48:17;;;;;;;44.33;4.65;;;10.40;89.30;;;;;;5460581;26;20018;-58
2024/04/17 07:50:42;;;;;;;31.30;4.07;;;10.40;89.30;;;;;;5458142;26;19999;-58
2024/04/17 07:53:08;;;;;;;33.63;4.55;;;10.40;89.60;;;;;;5458989;26;19999;-58
2024/04/17 07:55:34;;;;;;;31.90;4.40;;;10.40;89.40;;;;;;5464081;26;20009;-58
2024/04/17 07:58:00;;;;;;;37.17;4.85;;;10.50;89.40;;;;;;5429268;26;20000;-57
2024/04/17 08:00:25;;;;;;;46.35;5.72;;;10.50;89.40;;;;;;5465357;26;20061;-58
2024/04/17 08:02:51;;;;;;;47.38;6.65;;;10.50;89.60;;;;;;5462291;26;19991;-58
2024/04/17 08:05:17;;;;;;;46.28;4.45;;;10.50;89.80;;;;;;5459599;26;20021;-58
2024/04/17 08:07:43;;;;;;;30.73;4.70;;;10.50;89.70;;;;;;5470465;26;20011;-58
2024/04/17 08:10:08;;;;;;;29.20;3.85;;;10.50;89.70;;;;;;5432097;26;19994;-56
2024/04/17 08:12:36;;;;;;;31.42;3.88;;;10.50;89.70;;;;;;5464178;26;19998;-57
2024/04/17 08:15:02;;;;;;;37.58;4.43;;;10.50;89.90;;;;;;5434402;26;20003;-57
2024/04/17 08:17:27;;;;;;;25.00;4.10;;;10.50;89.80;;;;;;5468167;26;20493;-58
2024/04/17 08:19:53;;;;;;;22.48;2.97;;;10.50;89.70;;;;;;5466017;26;20071;-58
2024/04/17 08:22:19;;;;;;;44.65;4.72;;;10.50;89.80;;;;;;5458046;26;20003;-57
2024/04/17 08:24:44;;;;;;;34.92;4.22;;;10.50;90.00;;;;;;5461362;26;20283;-57
2024/04/17 08:27:10;;;;;;;33.15;4.55;;;10.50;90.00;;;;;;5463879;26;20017;-58
2024/04/17 08:29:36;;;;;;;36.90;4.72;;;10.50;90.10;;;;;;5476160;26;20000;-57
2024/04/17 08:32:02;;;;;;;27.70;4.43;;;10.50;90.10;;;;;;5493280;26;20473;-58
2024/04/17 08:34:28;;;;;;;31.92;3.50;;;10.50;90.10;;;;;;5443469;26;20049;-58
2024/04/17 08:36:53;;;;;;;37.08;4.35;;;10.50;90.00;;;;;;5425606;26;20019;-57
2024/04/17 08:39:19;;;;;;;32.13;3.42;;;10.50;90.00;;;;;;5456597;26;19992;-57
2024/04/17 08:41:48;;;;;;;30.33;3.85;;;10.50;90.00;;;;;;5456439;26;19999;-57
2024/04/17 08:44:16;;;;;;;30.80;3.38;;;10.50;90.00;;;;;;5461013;26;20006;-57
2024/04/17 08:46:43;;;;;;;18.75;2.88;;;10.50;89.90;;;;;;5462669;26;20114;-57
2024/04/17 08:49:08;;;;;;;24.85;3.42;;;10.60;89.80;;;;;;5484028;26;20015;-57
2024/04/17 08:51:34;;;;;;;36.20;4.00;;;10.60;89.70;;;;;;5396985;26;19995;-57
2024/04/17 08:54:00;;;;;;;25.17;3.40;;;10.60;89.60;;;;;;5409779;26;20320;-58
2024/04/17 08:56:26;;;;;;;38.03;4.38;;;10.60;89.90;;;;;;5450191;26;20003;-58
2024/04/17 08:58:52;;;;;;;37.22;3.10;;;10.60;89.70;;;;;;5426635;26;19988;-57
2024/04/17 09:01:18;;;;;;;25.95;2.97;;;10.60;89.70;;;;;;5426744;26;20010;-57
2024/04/17 09:03:44;;;;;;;27.60;3.08;;;10.60;89.50;;;;;;5451968;26;20029;-57
2024/04/17 09:06:09;;;;;;;21.80;3.58;;;10.60;89.30;;;;;;5456281;26;20014;-57
2024/04/17 09:08:36;;;;;;;26.70;3.55;;;10.70;89.50;;;;;;5396882;26;20378;-57
2024/04/17 09:11:02;;;;;;;16.15;2.33;;;10.70;89.40;;;;;;5459051;26;20030;-58
2024/04/17 09:13:28;;;;;;;41.78;3.63;;;10.70;89.30;;;;;;5454545;26;19996;-58
2024/04/17 09:15:54;;;;;;;25.25;3.67;;;10.70;89.10;;;;;;5439404;26;20006;-57
2024/04/17 09:18:26;;;;;;;39.95;4.00;;;10.70;89.00;;;;;;5460240;26;20010;-57
2024/04/17 09:20:54;;;;;;;33.47;3.08;;;10.70;89.00;;;;;;5461666;26;20067;-57
2024/04/17 09:23:19;;;;;;;30.85;4.53;;;10.70;89.10;;;;;;5422409;26;20419;-58
2024/04/17 09:25:45;;;;;;;42.47;4.55;;;10.70;89.10;;;;;;5457811;26;19999;-57
2024/04/17 09:28:12;;;;;;;59.38;5.03;;;10.70;89.20;;;;;;5492565;26;19995;-57
2024/04/17 09:30:40;;;;;;;106.18;10.18;;;10.70;89.20;;;;;;5452565;26;20375;-58
2024/04/17 09:33:07;;;;;;;72.97;8.35;;;10.80;89.00;;;;;;5424197;26;20013;-58
2024/04/17 09:35:33;;;;;;;27.80;4.35;;;10.80;88.80;;;;;;5413125;26;19999;-58
2024/04/17 09:37:58;;;;;;;58.42;6.05;;;10.80;88.80;;;;;;5454146;26;20138;-57
2024/04/17 09:40:24;;;;;;;61.92;7.55;;;10.80;89.00;;;;;;5450715;26;20064;-57
2024/04/17 09:42:50;;;;;;;46.65;5.32;;;10.80;89.00;;;;;;5483254;26;20015;-57
2024/04/17 09:45:15;;;;;;;44.30;4.97;;;10.80;89.20;;;;;;5431743;26;20121;-57
2024/04/17 09:47:42;;;;;;;40.13;4.47;;;10.80;89.00;;;;;;5418290;26;20011;-57
2024/04/17 09:50:09;;;;;;;52.35;4.57;;;10.80;88.90;;;;;;5427623;26;20441;-58
2024/04/17 09:52:34;;;;;;;54.05;6.38;;;10.80;89.10;;;;;;5425845;26;20028;-58
2024/04/17 09:55:00;;;;;;;53.15;6.03;;;10.90;89.20;;;;;;5425609;26;20011;-58
2024/04/17 09:57:26;;;;;;;31.85;4.63;;;10.90;88.90;;;;;;5425957;26;20003;-58
2024/04/17 09:59:51;;;;;;;64.53;6.53;;;10.90;89.00;;;;;;5428969;26;20022;-58
2024/04/17 10:02:17;;;;;;;156.63;14.35;;;10.90;89.10;;;;;;5432101;26;20073;-57
2024/04/17 10:04:43;;;;;;;376.60;33.15;;;10.90;89.10;;;;;;5452860;26;20007;-57
2024/04/17 10:07:15;;;;;;;90.20;11.07;;;10.90;88.90;;;;;;5421080;26;19995;-58
2024/04/17 10:09:40;;;;;;;85.00;7.47;;;11.00;88.80;;;;;;5423838;26;20006;-58
2024/04/17 10:12:10;;;;;;;79.00;8.23;;;10.90;88.80;;;;;;5424582;26;19999;-58
2024/04/17 10:14:37;;;;;;;71.80;8.52;;;11.00;89.00;;;;;;5432056;26;19991;-58
2024/04/17 10:17:05;;;;;;;74.25;8.30;;;11.00;88.90;;;;;;5431396;26;20057;-58
2024/04/17 10:19:31;;;;;;;93.72;8.45;;;11.00;88.90;;;;;;5461393;26;20001;-57
2024/04/17 10:21:57;;;;;;;82.70;9.45;;;11.10;88.90;;;;;;5463261;26;20337;-58
2024/04/17 10:24:22;;;;;;;75.63;8.82;;;11.10;88.80;;;;;;5433569;26;20398;-58
2024/04/17 10:26:57;;;;;;;112.53;12.07;;;11.20;88.80;;;;;;5497553;26;20066;-58
2024/04/17 10:29:25;;;;;;;102.93;11.87;;;11.30;88.70;;;;;;5468301;26;19998;-57
2024/04/17 10:32:01;;;;;;;65.97;8.25;;;11.30;88.50;;;;;;5440328;26;20023;-58
2024/04/17 10:34:41;;;;;;;89.28;10.48;;;11.30;88.60;;;;;;5454835;26;20013;-58
2024/04/17 10:37:07;;;;;;;94.85;11.13;;;11.40;88.70;;;;;;5429826;26;20014;-57
2024/04/17 10:39:33;;;;;;;83.20;10.77;;;11.40;88.50;;;;;;5454119;26;20011;-57
2024/04/17 10:41:59;;;;;;;105.30;10.50;;;11.50;88.60;;;;;;5438507;26;20002;-57
2024/04/17 10:44:25;;;;;;;83.28;9.45;;;11.50;88.60;;;;;;5485050;26;20297;-57
2024/04/17 10:47:01;;;;;;;108.35;11.07;;;11.50;88.70;;;;;;5426105;26;20003;-58
2024/04/17 10:49:27;;;;;;;118.10;11.32;;;11.50;88.90;;;;;;5423967;26;20069;-57
2024/04/17 10:51:53;;;;;;;110.85;11.38;;;11.60;89.00;;;;;;5453077;26;20010;-57
2024/04/17 10:54:19;;;;;;;116.85;10.90;;;11.60;88.90;;;;;;5453952;26;19996;-58
2024/04/17 10:56:44;;;;;;;111.07;12.32;;;11.60;89.00;;;;;;5442496;26;20051;-57
2024/04/17 10:59:10;;;;;;;111.88;13.85;;;11.60;88.80;;;;;;5460255;26;20013;-57
2024/04/17 11:01:37;;;;;;;119.68;12.50;;;11.70;88.70;;;;;;5442292;26;20010;-57
2024/04/17 11:04:03;;;;;;;106.00;13.45;;;11.70;88.70;;;;;;5486471;26;19996;-58
2024/04/17 11:06:28;;;;;;;148.52;14.60;;;11.70;88.70;;;;;;5457404;26;20472;-58
2024/04/17 11:08:54;;;;;;;123.18;12.57;;;11.70;88.90;;;;;;5434298;26;20459;-57
2024/04/17 11:11:20;;;;;;;168.75;16.02;;;11.70;88.60;;;;;;5434315;26;20024;-57
2024/04/17 11:13:46;;;;;;;147.07;14.80;;;11.70;88.50;;;;;;5458432;26;19999;-57
2024/04/17 11:16:13;;;;;;;161.82;17.80;;;11.70;88.60;;;;;;5459515;26;20006;-58
2024/04/17 11:18:38;;;;;;;128.23;13.77;;;11.70;88.60;;;;;;5449608;26;20041;-58
2024/04/17 11:21:04;;;;;;;145.90;15.52;;;11.70;88.50;;;;;;5438553;26;20031;-57
2024/04/17 11:23:43;;;;;;;129.45;13.93;;;11.70;88.40;;;;;;5508174;26;20009;-57
2024/04/17 11:26:10;;;;;;;144.20;13.95;;;11.80;88.50;;;;;;5433095;26;20007;-58
2024/04/17 11:28:42;;;;;;;125.63;13.65;;;11.80;88.50;;;;;;5446974;26;20064;-57
2024/04/17 11:31:13;;;;;;;144.95;13.88;;;11.80;88.40;;;;;;5437242;26;19999;-57
2024/04/17 11:33:39;;;;;;;117.45;14.52;;;11.80;88.40;;;;;;5504053;25;20014;-57
2024/04/17 11:36:08;;;;;;;130.45;14.40;;;11.80;88.40;;;;;;5451767;26;19996;-57
2024/04/17 11:38:34;;;;;;;135.13;15.18;;;11.80;88.40;;;;;;5447312;26;20010;-57
2024/04/17 11:41:01;;;;;;;127.70;14.68;;;11.80;88.50;;;;;;5449060;26;20388;-57
2024/04/17 11:43:27;;;;;;;142.02;15.40;;;11.80;88.50;;;;;;5440139;26;20001;-57
2024/04/17 11:45:52;;;;;;;109.90;14.45;;;11.80;88.60;;;;;;5464938;26;20015;-58
2024/04/17 11:48:18;;;;;;;134.98;14.57;;;11.80;88.60;;;;;;5455912;26;20003;-58
2024/04/17 11:50:44;;;;;;;141.48;17.05;;;11.80;88.30;;;;;;5458454;26;20022;-57
2024/04/17 11:53:09;;;;;;;146.25;14.82;;;11.80;88.30;;;;;;5396776;26;20020;-59
2024/04/17 11:55:35;;;;;;;111.72;12.55;;;11.80;88.20;;;;;;5432442;26;20011;-58
2024/04/17 11:58:00;;;;;;;86.55;9.70;;;11.80;88.10;;;;;;5429629;26;20055;-58
2024/04/17 12:00:26;;;;;;;80.43;8.77;;;11.70;87.80;;;;;;5444229;26;20011;-58
2024/04/17 12:02:52;;;;;;;83.53;9.88;;;11.70;87.60;;;;;;5446310;26;20003;-58
2024/04/17 12:05:17;;;;;;;76.70;8.95;;;11.60;87.50;;;;;;5466404;26;20106;-59
2024/04/17 12:07:43;;;;;;;63.50;8.32;;;11.50;87.60;;;;;;5425540;26;19999;-58
2024/04/17 12:10:08;;;;;;;80.68;10.20;;;11.40;87.50;;;;;;5467613;26;19999;-57
2024/04/17 12:12:34;;;;;;;106.90;11.68;;;11.40;87.70;;;;;;5427367;26;20018;-58
2024/04/17 12:15:00;;;;;;;199.68;18.63;;;11.30;87.60;;;;;;5439150;26;19999;-57
2024/04/17 12:17:26;;;;;;;102.30;11.93;;;11.20;87.50;;;;;;5444033;26;20003;-58
2024/04/17 12:19:52;;;;;;;106.55;13.02;;;11.20;87.80;;;;;;5418999;26;20005;-58
2024/04/17 12:22:18;;;;;;;85.50;11.60;;;11.20;88.00;;;;;;5449437;26;20010;-59
2024/04/17 12:27:29;;;;;;;104.13;13.73;;;11.20;88.10;;;;;;5457918;26;20549;-57
2024/04/17 12:29:55;;;;;;;102.30;11.63;;;11.10;88.20;;;;;;5423858;26;19991;-57
2024/04/17 12:32:20;;;;;;;101.00;10.98;;;11.20;88.30;;;;;;5445008;26;19999;-57
2024/04/17 12:34:46;;;;;;;73.75;11.07;;;11.20;87.90;;;;;;5446143;26;19999;-57